sensor_id;sensor_type;location;lat;lon;timestamp;P1;durP1;ratioP1;P2;durP2;ratioP2
10605;SDS011;5350;42.698;23.148;2023-05-16T00:01:51;23.27;;;20.15;;
10605;SDS011;5350;42.698;23.148;2023-05-16T00:04:18;22.40;;;19.33;;
10605;SDS011;5350;42.698;23.148;2023-05-16T00:06:45;24.27;;;19.63;;
10605;SDS011;5350;42.698;23.148;2023-05-16T00:09:12;24.80;;;20.40;;
10605;SDS011;5350;42.698;23.148;2023-05-16T00:11:39;23.45;;;18.45;;
10605;SDS011;5350;42.698;23.148;2023-05-16T00:14:05;23.83;;;18.50;;
10605;SDS011;5350;42.698;23.148;2023-05-16T00:16:32;21.57;;;19.23;;
10605;SDS011;5350;42.698;23.148;2023-05-16T00:19:02;21.15;;;18.85;;
10605;SDS011;5350;42.698;23.148;2023-05-16T00:21:29;23.17;;;19.60;;
10605;SDS011;5350;42.698;23.148;2023-05-16T00:23:56;25.08;;;20.13;;
10605;SDS011;5350;42.698;23.148;2023-05-16T00:26:22;25.23;;;20.07;;
10605;SDS011;5350;42.698;23.148;2023-05-16T00:28:50;21.80;;;18.90;;
10605;SDS011;5350;42.698;23.148;2023-05-16T00:31:16;23.07;;;19.50;;
10605;SDS011;5350;42.698;23.148;2023-05-16T00:33:43;23.40;;;18.23;;
10605;SDS011;5350;42.698;23.148;2023-05-16T00:36:11;23.03;;;18.73;;
10605;SDS011;5350;42.698;23.148;2023-05-16T00:38:38;20.17;;;17.95;;
10605;SDS011;5350;42.698;23.148;2023-05-16T00:41:05;21.05;;;18.13;;
10605;SDS011;5350;42.698;23.148;2023-05-16T00:43:32;24.13;;;19.33;;
10605;SDS011;5350;42.698;23.148;2023-05-16T00:45:58;22.40;;;18.30;;
10605;SDS011;5350;42.698;23.148;2023-05-16T00:48:26;25.97;;;21.30;;
10605;SDS011;5350;42.698;23.148;2023-05-16T00:50:53;27.45;;;21.95;;
10605;SDS011;5350;42.698;23.148;2023-05-16T00:53:21;22.93;;;19.37;;
10605;SDS011;5350;42.698;23.148;2023-05-16T00:55:49;25.10;;;19.97;;
10605;SDS011;5350;42.698;23.148;2023-05-16T00:58:17;22.80;;;18.77;;
10605;SDS011;5350;42.698;23.148;2023-05-16T01:00:44;27.93;;;19.87;;
10605;SDS011;5350;42.698;23.148;2023-05-16T01:03:12;26.37;;;19.27;;
10605;SDS011;5350;42.698;23.148;2023-05-16T01:05:39;23.03;;;20.13;;
10605;SDS011;5350;42.698;23.148;2023-05-16T01:08:06;34.93;;;25.30;;
10605;SDS011;5350;42.698;23.148;2023-05-16T01:10:35;38.03;;;30.07;;
10605;SDS011;5350;42.698;23.148;2023-05-16T01:13:10;26.35;;;20.92;;
10605;SDS011;5350;42.698;23.148;2023-05-16T01:15:45;27.30;;;24.33;;
10605;SDS011;5350;42.698;23.148;2023-05-16T01:18:17;26.55;;;21.25;;
10605;SDS011;5350;42.698;23.148;2023-05-16T01:20:52;25.08;;;20.25;;
10605;SDS011;5350;42.698;23.148;2023-05-16T01:23:32;21.17;;;18.88;;
10605;SDS011;5350;42.698;23.148;2023-05-16T01:26:15;21.73;;;19.43;;
10605;SDS011;5350;42.698;23.148;2023-05-16T01:28:47;24.92;;;21.15;;
10605;SDS011;5350;42.698;23.148;2023-05-16T01:31:14;21.10;;;18.23;;
10605;SDS011;5350;42.698;23.148;2023-05-16T01:33:41;27.40;;;21.10;;
10605;SDS011;5350;42.698;23.148;2023-05-16T01:36:10;25.10;;;19.80;;
10605;SDS011;5350;42.698;23.148;2023-05-16T01:38:44;24.50;;;19.73;;
10605;SDS011;5350;42.698;23.148;2023-05-16T01:41:22;26.40;;;18.70;;
10605;SDS011;5350;42.698;23.148;2023-05-16T01:43:54;24.23;;;19.27;;
10605;SDS011;5350;42.698;23.148;2023-05-16T01:46:25;26.88;;;20.33;;
10605;SDS011;5350;42.698;23.148;2023-05-16T01:48:57;29.70;;;22.57;;
10605;SDS011;5350;42.698;23.148;2023-05-16T01:51:31;30.03;;;24.40;;
10605;SDS011;5350;42.698;23.148;2023-05-16T01:53:59;26.60;;;22.27;;
10605;SDS011;5350;42.698;23.148;2023-05-16T01:56:32;27.83;;;23.23;;
10605;SDS011;5350;42.698;23.148;2023-05-16T01:59:01;29.00;;;21.73;;
10605;SDS011;5350;42.698;23.148;2023-05-16T02:01:29;27.83;;;21.33;;
10605;SDS011;5350;42.698;23.148;2023-05-16T02:03:56;25.43;;;20.30;;
10605;SDS011;5350;42.698;23.148;2023-05-16T02:06:23;24.53;;;20.17;;
10605;SDS011;5350;42.698;23.148;2023-05-16T02:08:50;24.57;;;19.87;;
10605;SDS011;5350;42.698;23.148;2023-05-16T02:11:17;25.50;;;20.13;;
10605;SDS011;5350;42.698;23.148;2023-05-16T02:13:45;22.63;;;19.13;;
10605;SDS011;5350;42.698;23.148;2023-05-16T02:16:11;25.23;;;19.60;;
10605;SDS011;5350;42.698;23.148;2023-05-16T02:18:38;22.53;;;20.00;;
10605;SDS011;5350;42.698;23.148;2023-05-16T02:21:05;23.57;;;19.67;;
10605;SDS011;5350;42.698;23.148;2023-05-16T02:23:32;23.80;;;19.87;;
10605;SDS011;5350;42.698;23.148;2023-05-16T02:25:59;23.63;;;20.33;;
10605;SDS011;5350;42.698;23.148;2023-05-16T02:28:26;27.23;;;20.57;;
10605;SDS011;5350;42.698;23.148;2023-05-16T02:30:57;26.13;;;20.40;;
10605;SDS011;5350;42.698;23.148;2023-05-16T02:33:24;23.23;;;19.63;;
10605;SDS011;5350;42.698;23.148;2023-05-16T02:35:51;22.08;;;19.48;;
10605;SDS011;5350;42.698;23.148;2023-05-16T02:38:18;23.93;;;19.77;;
10605;SDS011;5350;42.698;23.148;2023-05-16T02:40:46;26.67;;;20.17;;
10605;SDS011;5350;42.698;23.148;2023-05-16T02:43:12;23.85;;;19.83;;
10605;SDS011;5350;42.698;23.148;2023-05-16T02:45:39;24.93;;;21.00;;
10605;SDS011;5350;42.698;23.148;2023-05-16T02:48:07;24.03;;;21.27;;
10605;SDS011;5350;42.698;23.148;2023-05-16T02:50:34;23.10;;;20.60;;
10605;SDS011;5350;42.698;23.148;2023-05-16T02:53:01;21.63;;;19.33;;
10605;SDS011;5350;42.698;23.148;2023-05-16T02:55:28;21.83;;;19.50;;
10605;SDS011;5350;42.698;23.148;2023-05-16T02:57:55;23.77;;;19.27;;
10605;SDS011;5350;42.698;23.148;2023-05-16T03:00:22;20.97;;;18.57;;
10605;SDS011;5350;42.698;23.148;2023-05-16T03:02:49;23.10;;;18.55;;
10605;SDS011;5350;42.698;23.148;2023-05-16T03:05:17;20.27;;;18.03;;
10605;SDS011;5350;42.698;23.148;2023-05-16T03:07:44;22.40;;;18.47;;
10605;SDS011;5350;42.698;23.148;2023-05-16T03:10:10;23.93;;;19.67;;
10605;SDS011;5350;42.698;23.148;2023-05-16T03:12:37;21.02;;;18.83;;
10605;SDS011;5350;42.698;23.148;2023-05-16T03:15:04;23.70;;;19.53;;
10605;SDS011;5350;42.698;23.148;2023-05-16T03:17:33;22.90;;;19.10;;
10605;SDS011;5350;42.698;23.148;2023-05-16T03:19:59;24.97;;;21.90;;
10605;SDS011;5350;42.698;23.148;2023-05-16T03:22:29;24.03;;;20.47;;
10605;SDS011;5350;42.698;23.148;2023-05-16T03:24:56;22.73;;;19.93;;
10605;SDS011;5350;42.698;23.148;2023-05-16T03:27:22;23.97;;;21.10;;
10605;SDS011;5350;42.698;23.148;2023-05-16T03:29:49;29.43;;;26.27;;
10605;SDS011;5350;42.698;23.148;2023-05-16T03:32:16;28.97;;;25.87;;
10605;SDS011;5350;42.698;23.148;2023-05-16T03:34:42;28.67;;;25.77;;
10605;SDS011;5350;42.698;23.148;2023-05-16T03:37:10;27.93;;;24.47;;
10605;SDS011;5350;42.698;23.148;2023-05-16T03:39:40;24.93;;;22.43;;
10605;SDS011;5350;42.698;23.148;2023-05-16T03:42:07;22.50;;;20.20;;
10605;SDS011;5350;42.698;23.148;2023-05-16T03:44:34;24.30;;;21.33;;
10605;SDS011;5350;42.698;23.148;2023-05-16T03:47:00;24.37;;;21.57;;
10605;SDS011;5350;42.698;23.148;2023-05-16T03:49:27;26.73;;;20.50;;
10605;SDS011;5350;42.698;23.148;2023-05-16T03:51:54;23.67;;;20.87;;
10605;SDS011;5350;42.698;23.148;2023-05-16T03:54:21;25.17;;;21.23;;
10605;SDS011;5350;42.698;23.148;2023-05-16T03:56:49;26.23;;;20.83;;
10605;SDS011;5350;42.698;23.148;2023-05-16T03:59:16;25.70;;;20.63;;
10605;SDS011;5350;42.698;23.148;2023-05-16T04:01:43;25.80;;;20.10;;
10605;SDS011;5350;42.698;23.148;2023-05-16T04:04:09;27.93;;;21.13;;
10605;SDS011;5350;42.698;23.148;2023-05-16T04:06:36;25.17;;;21.20;;
10605;SDS011;5350;42.698;23.148;2023-05-16T04:09:03;26.52;;;21.58;;
10605;SDS011;5350;42.698;23.148;2023-05-16T04:11:30;23.00;;;20.70;;
10605;SDS011;5350;42.698;23.148;2023-05-16T04:13:59;25.37;;;21.07;;
10605;SDS011;5350;42.698;23.148;2023-05-16T04:16:26;24.70;;;20.53;;
10605;SDS011;5350;42.698;23.148;2023-05-16T04:18:53;24.88;;;20.73;;
10605;SDS011;5350;42.698;23.148;2023-05-16T04:21:20;23.20;;;20.67;;
10605;SDS011;5350;42.698;23.148;2023-05-16T04:23:46;26.60;;;21.43;;
10605;SDS011;5350;42.698;23.148;2023-05-16T04:26:13;22.73;;;19.87;;
10605;SDS011;5350;42.698;23.148;2023-05-16T04:28:40;24.40;;;21.80;;
10605;SDS011;5350;42.698;23.148;2023-05-16T04:31:08;25.20;;;21.57;;
10605;SDS011;5350;42.698;23.148;2023-05-16T04:33:35;24.60;;;22.20;;
10605;SDS011;5350;42.698;23.148;2023-05-16T04:36:02;24.50;;;21.10;;
10605;SDS011;5350;42.698;23.148;2023-05-16T04:38:30;28.23;;;21.37;;
10605;SDS011;5350;42.698;23.148;2023-05-16T04:40:56;24.40;;;21.80;;
10605;SDS011;5350;42.698;23.148;2023-05-16T04:43:24;28.23;;;23.10;;
10605;SDS011;5350;42.698;23.148;2023-05-16T04:45:51;26.50;;;23.47;;
10605;SDS011;5350;42.698;23.148;2023-05-16T04:48:20;33.07;;;29.43;;
10605;SDS011;5350;42.698;23.148;2023-05-16T04:50:46;29.07;;;22.67;;
10605;SDS011;5350;42.698;23.148;2023-05-16T04:53:13;24.33;;;21.77;;
10605;SDS011;5350;42.698;23.148;2023-05-16T04:55:40;23.77;;;21.17;;
10605;SDS011;5350;42.698;23.148;2023-05-16T04:58:07;25.70;;;23.00;;
10605;SDS011;5350;42.698;23.148;2023-05-16T05:00:33;26.23;;;22.17;;
10605;SDS011;5350;42.698;23.148;2023-05-16T05:03:00;30.98;;;27.15;;
10605;SDS011;5350;42.698;23.148;2023-05-16T05:05:28;25.13;;;22.47;;
10605;SDS011;5350;42.698;23.148;2023-05-16T05:07:56;25.40;;;22.70;;
10605;SDS011;5350;42.698;23.148;2023-05-16T05:10:23;24.65;;;21.67;;
10605;SDS011;5350;42.698;23.148;2023-05-16T05:12:51;23.10;;;20.77;;
10605;SDS011;5350;42.698;23.148;2023-05-16T05:15:18;23.70;;;20.90;;
10605;SDS011;5350;42.698;23.148;2023-05-16T05:17:45;22.23;;;19.83;;
10605;SDS011;5350;42.698;23.148;2023-05-16T05:20:11;23.65;;;21.15;;
10605;SDS011;5350;42.698;23.148;2023-05-16T05:22:40;23.60;;;21.02;;
10605;SDS011;5350;42.698;23.148;2023-05-16T05:25:07;26.98;;;22.42;;
10605;SDS011;5350;42.698;23.148;2023-05-16T05:27:34;23.60;;;21.08;;
10605;SDS011;5350;42.698;23.148;2023-05-16T05:30:01;23.50;;;21.10;;
10605;SDS011;5350;42.698;23.148;2023-05-16T05:32:27;24.63;;;22.08;;
10605;SDS011;5350;42.698;23.148;2023-05-16T05:34:55;20.98;;;18.77;;
10605;SDS011;5350;42.698;23.148;2023-05-16T05:37:21;27.05;;;19.40;;
10605;SDS011;5350;42.698;23.148;2023-05-16T05:39:49;28.60;;;25.88;;
10605;SDS011;5350;42.698;23.148;2023-05-16T05:42:16;20.48;;;18.30;;
10605;SDS011;5350;42.698;23.148;2023-05-16T05:44:43;19.52;;;17.50;;
10605;SDS011;5350;42.698;23.148;2023-05-16T05:47:10;21.67;;;18.05;;
10605;SDS011;5350;42.698;23.148;2023-05-16T05:49:36;18.42;;;16.55;;
10605;SDS011;5350;42.698;23.148;2023-05-16T05:52:03;21.67;;;18.00;;
10605;SDS011;5350;42.698;23.148;2023-05-16T05:54:30;21.05;;;18.73;;
10605;SDS011;5350;42.698;23.148;2023-05-16T05:56:58;20.65;;;18.65;;
10605;SDS011;5350;42.698;23.148;2023-05-16T05:59:25;22.98;;;17.30;;
10605;SDS011;5350;42.698;23.148;2023-05-16T06:01:52;20.48;;;18.48;;
10605;SDS011;5350;42.698;23.148;2023-05-16T06:04:19;20.80;;;18.10;;
10605;SDS011;5350;42.698;23.148;2023-05-16T06:06:47;20.65;;;17.25;;
10605;SDS011;5350;42.698;23.148;2023-05-16T06:09:13;18.67;;;16.77;;
10605;SDS011;5350;42.698;23.148;2023-05-16T06:11:40;18.35;;;16.33;;
10605;SDS011;5350;42.698;23.148;2023-05-16T06:14:11;21.05;;;17.50;;
10605;SDS011;5350;42.698;23.148;2023-05-16T06:16:37;18.30;;;16.20;;
10605;SDS011;5350;42.698;23.148;2023-05-16T06:19:04;18.50;;;16.63;;
10605;SDS011;5350;42.698;23.148;2023-05-16T06:21:31;18.60;;;16.55;;
10605;SDS011;5350;42.698;23.148;2023-05-16T06:23:58;19.40;;;17.40;;
10605;SDS011;5350;42.698;23.148;2023-05-16T06:26:25;17.17;;;15.48;;
10605;SDS011;5350;42.698;23.148;2023-05-16T06:28:51;17.90;;;16.13;;
10605;SDS011;5350;42.698;23.148;2023-05-16T06:31:19;17.95;;;16.05;;
10605;SDS011;5350;42.698;23.148;2023-05-16T06:33:46;17.52;;;15.57;;
10605;SDS011;5350;42.698;23.148;2023-05-16T06:36:13;18.08;;;16.02;;
10605;SDS011;5350;42.698;23.148;2023-05-16T06:38:40;20.23;;;16.65;;
10605;SDS011;5350;42.698;23.148;2023-05-16T06:41:06;19.60;;;16.02;;
10605;SDS011;5350;42.698;23.148;2023-05-16T06:43:33;17.73;;;15.80;;
10605;SDS011;5350;42.698;23.148;2023-05-16T06:46:00;20.55;;;18.48;;
10605;SDS011;5350;42.698;23.148;2023-05-16T06:48:29;24.73;;;20.88;;
10605;SDS011;5350;42.698;23.148;2023-05-16T06:50:56;19.17;;;17.27;;
10605;SDS011;5350;42.698;23.148;2023-05-16T06:53:23;20.27;;;17.45;;
10605;SDS011;5350;42.698;23.148;2023-05-16T06:55:50;18.17;;;15.30;;
10605;SDS011;5350;42.698;23.148;2023-05-16T06:58:17;26.75;;;19.63;;
10605;SDS011;5350;42.698;23.148;2023-05-16T07:00:43;21.65;;;18.70;;
10605;SDS011;5350;42.698;23.148;2023-05-16T07:03:10;23.42;;;17.25;;
10605;SDS011;5350;42.698;23.148;2023-05-16T07:05:39;18.65;;;16.10;;
10605;SDS011;5350;42.698;23.148;2023-05-16T07:08:07;18.00;;;16.25;;
10605;SDS011;5350;42.698;23.148;2023-05-16T07:10:34;17.27;;;15.68;;
10605;SDS011;5350;42.698;23.148;2023-05-16T07:13:01;21.77;;;15.65;;
10605;SDS011;5350;42.698;23.148;2023-05-16T07:15:29;17.92;;;16.02;;
10605;SDS011;5350;42.698;23.148;2023-05-16T07:17:55;20.60;;;16.05;;
10605;SDS011;5350;42.698;23.148;2023-05-16T07:20:22;21.38;;;16.55;;
10605;SDS011;5350;42.698;23.148;2023-05-16T07:22:51;17.85;;;15.95;;
10605;SDS011;5350;42.698;23.148;2023-05-16T07:25:17;16.75;;;14.93;;
10605;SDS011;5350;42.698;23.148;2023-05-16T07:27:44;19.33;;;15.93;;
10605;SDS011;5350;42.698;23.148;2023-05-16T07:30:11;22.10;;;17.15;;
10605;SDS011;5350;42.698;23.148;2023-05-16T07:32:39;19.35;;;17.45;;
10605;SDS011;5350;42.698;23.148;2023-05-16T07:35:07;17.60;;;15.40;;
10605;SDS011;5350;42.698;23.148;2023-05-16T07:37:34;18.55;;;15.05;;
10605;SDS011;5350;42.698;23.148;2023-05-16T07:40:03;17.52;;;15.02;;
10605;SDS011;5350;42.698;23.148;2023-05-16T07:42:31;14.80;;;13.30;;
10605;SDS011;5350;42.698;23.148;2023-05-16T07:44:57;17.70;;;13.57;;
10605;SDS011;5350;42.698;23.148;2023-05-16T07:47:24;15.32;;;12.73;;
10605;SDS011;5350;42.698;23.148;2023-05-16T07:49:51;19.10;;;12.88;;
10605;SDS011;5350;42.698;23.148;2023-05-16T07:52:18;16.02;;;12.05;;
10605;SDS011;5350;42.698;23.148;2023-05-16T07:54:45;15.18;;;13.38;;
10605;SDS011;5350;42.698;23.148;2023-05-16T07:57:13;14.80;;;13.10;;
10605;SDS011;5350;42.698;23.148;2023-05-16T07:59:41;17.20;;;13.10;;
10605;SDS011;5350;42.698;23.148;2023-05-16T08:02:08;17.60;;;12.50;;
10605;SDS011;5350;42.698;23.148;2023-05-16T08:04:35;15.30;;;13.55;;
10605;SDS011;5350;42.698;23.148;2023-05-16T08:07:02;15.05;;;12.13;;
10605;SDS011;5350;42.698;23.148;2023-05-16T08:09:29;16.92;;;12.68;;
10605;SDS011;5350;42.698;23.148;2023-05-16T08:11:56;17.27;;;12.80;;
10605;SDS011;5350;42.698;23.148;2023-05-16T08:14:28;17.70;;;13.43;;
10605;SDS011;5350;42.698;23.148;2023-05-16T08:16:56;14.90;;;11.25;;
10605;SDS011;5350;42.698;23.148;2023-05-16T08:19:23;14.30;;;11.43;;
10605;SDS011;5350;42.698;23.148;2023-05-16T08:21:50;12.57;;;11.23;;
10605;SDS011;5350;42.698;23.148;2023-05-16T08:24:17;16.98;;;11.00;;
10605;SDS011;5350;42.698;23.148;2023-05-16T08:26:44;14.38;;;11.18;;
10605;SDS011;5350;42.698;23.148;2023-05-16T08:29:10;13.80;;;10.18;;
10605;SDS011;5350;42.698;23.148;2023-05-16T08:31:38;14.90;;;10.82;;
10605;SDS011;5350;42.698;23.148;2023-05-16T08:34:05;14.10;;;9.52;;
10605;SDS011;5350;42.698;23.148;2023-05-16T08:36:33;11.25;;;9.45;;
10605;SDS011;5350;42.698;23.148;2023-05-16T08:39:00;11.82;;;8.48;;
10605;SDS011;5350;42.698;23.148;2023-05-16T08:41:27;9.68;;;7.95;;
10605;SDS011;5350;42.698;23.148;2023-05-16T08:43:54;10.43;;;8.23;;
10605;SDS011;5350;42.698;23.148;2023-05-16T08:46:22;16.90;;;8.20;;
10605;SDS011;5350;42.698;23.148;2023-05-16T08:48:51;11.45;;;7.80;;
10605;SDS011;5350;42.698;23.148;2023-05-16T08:51:19;14.05;;;7.97;;
10605;SDS011;5350;42.698;23.148;2023-05-16T08:53:49;13.05;;;8.07;;
10605;SDS011;5350;42.698;23.148;2023-05-16T08:56:19;10.35;;;7.35;;
10605;SDS011;5350;42.698;23.148;2023-05-16T08:58:47;11.95;;;7.65;;
10605;SDS011;5350;42.698;23.148;2023-05-16T09:01:15;11.18;;;7.10;;
10605;SDS011;5350;42.698;23.148;2023-05-16T09:03:44;11.98;;;6.88;;
10605;SDS011;5350;42.698;23.148;2023-05-16T09:06:13;14.30;;;6.65;;
10605;SDS011;5350;42.698;23.148;2023-05-16T09:08:40;8.80;;;6.60;;
10605;SDS011;5350;42.698;23.148;2023-05-16T09:11:07;10.00;;;7.00;;
10605;SDS011;5350;42.698;23.148;2023-05-16T09:13:35;11.18;;;6.32;;
10605;SDS011;5350;42.698;23.148;2023-05-16T09:16:09;10.88;;;6.18;;
10605;SDS011;5350;42.698;23.148;2023-05-16T09:18:37;7.93;;;6.55;;
10605;SDS011;5350;42.698;23.148;2023-05-16T09:21:04;10.50;;;6.75;;
10605;SDS011;5350;42.698;23.148;2023-05-16T09:23:34;11.15;;;6.47;;
10605;SDS011;5350;42.698;23.148;2023-05-16T09:26:01;10.48;;;6.03;;
10605;SDS011;5350;42.698;23.148;2023-05-16T09:28:29;9.15;;;5.93;;
10605;SDS011;5350;42.698;23.148;2023-05-16T09:30:56;10.77;;;6.45;;
10605;SDS011;5350;42.698;23.148;2023-05-16T09:33:25;11.57;;;6.70;;
10605;SDS011;5350;42.698;23.148;2023-05-16T09:35:53;9.07;;;6.25;;
10605;SDS011;5350;42.698;23.148;2023-05-16T09:38:21;13.20;;;6.60;;
10605;SDS011;5350;42.698;23.148;2023-05-16T09:40:50;7.35;;;6.05;;
10605;SDS011;5350;42.698;23.148;2023-05-16T09:43:18;8.50;;;6.25;;
10605;SDS011;5350;42.698;23.148;2023-05-16T09:45:48;10.75;;;6.18;;
10605;SDS011;5350;42.698;23.148;2023-05-16T09:48:15;12.05;;;6.20;;
10605;SDS011;5350;42.698;23.148;2023-05-16T09:50:45;10.85;;;6.55;;
10605;SDS011;5350;42.698;23.148;2023-05-16T09:53:13;9.98;;;6.45;;
10605;SDS011;5350;42.698;23.148;2023-05-16T09:55:40;10.35;;;6.53;;
10605;SDS011;5350;42.698;23.148;2023-05-16T09:58:09;13.02;;;6.47;;
10605;SDS011;5350;42.698;23.148;2023-05-16T10:00:35;9.27;;;6.57;;
10605;SDS011;5350;42.698;23.148;2023-05-16T10:03:03;13.82;;;6.25;;
10605;SDS011;5350;42.698;23.148;2023-05-16T10:05:30;11.20;;;6.28;;
10605;SDS011;5350;42.698;23.148;2023-05-16T10:07:57;12.02;;;6.20;;
10605;SDS011;5350;42.698;23.148;2023-05-16T10:10:24;7.82;;;5.50;;
10605;SDS011;5350;42.698;23.148;2023-05-16T10:12:52;9.07;;;5.90;;
10605;SDS011;5350;42.698;23.148;2023-05-16T10:15:24;9.52;;;5.93;;
10605;SDS011;5350;42.698;23.148;2023-05-16T10:17:53;11.35;;;5.85;;
10605;SDS011;5350;42.698;23.148;2023-05-16T10:20:23;14.63;;;6.45;;
10605;SDS011;5350;42.698;23.148;2023-05-16T10:22:52;11.93;;;5.50;;
10605;SDS011;5350;42.698;23.148;2023-05-16T10:25:23;9.50;;;5.68;;
10605;SDS011;5350;42.698;23.148;2023-05-16T10:27:54;21.05;;;6.15;;
10605;SDS011;5350;42.698;23.148;2023-05-16T10:30:21;13.45;;;6.65;;
10605;SDS011;5350;42.698;23.148;2023-05-16T10:32:49;10.48;;;6.20;;
10605;SDS011;5350;42.698;23.148;2023-05-16T10:35:18;12.77;;;6.43;;
10605;SDS011;5350;42.698;23.148;2023-05-16T10:37:45;12.10;;;6.90;;
10605;SDS011;5350;42.698;23.148;2023-05-16T10:40:14;9.65;;;6.70;;
10605;SDS011;5350;42.698;23.148;2023-05-16T10:42:43;10.15;;;6.93;;
10605;SDS011;5350;42.698;23.148;2023-05-16T10:45:20;12.15;;;6.57;;
10605;SDS011;5350;42.698;23.148;2023-05-16T10:47:52;10.98;;;6.70;;
10605;SDS011;5350;42.698;23.148;2023-05-16T10:53:12;15.75;;;7.03;;
10605;SDS011;5350;42.698;23.148;2023-05-16T10:55:43;9.35;;;7.05;;
10605;SDS011;5350;42.698;23.148;2023-05-16T10:58:17;18.55;;;9.90;;
10605;SDS011;5350;42.698;23.148;2023-05-16T11:00:46;13.35;;;10.20;;
10605;SDS011;5350;42.698;23.148;2023-05-16T11:03:21;10.05;;;8.13;;
10605;SDS011;5350;42.698;23.148;2023-05-16T11:05:52;11.23;;;8.43;;
10605;SDS011;5350;42.698;23.148;2023-05-16T11:08:19;9.45;;;7.45;;
10605;SDS011;5350;42.698;23.148;2023-05-16T11:10:45;11.23;;;7.72;;
10605;SDS011;5350;42.698;23.148;2023-05-16T11:13:12;11.60;;;7.03;;
10605;SDS011;5350;42.698;23.148;2023-05-16T11:15:43;12.63;;;6.72;;
10605;SDS011;5350;42.698;23.148;2023-05-16T11:18:13;15.60;;;7.85;;
10605;SDS011;5350;42.698;23.148;2023-05-16T11:20:42;15.00;;;7.30;;
10605;SDS011;5350;42.698;23.148;2023-05-16T11:23:21;14.65;;;6.97;;
10605;SDS011;5350;42.698;23.148;2023-05-16T11:25:51;12.55;;;8.20;;
10605;SDS011;5350;42.698;23.148;2023-05-16T11:28:19;17.38;;;7.43;;
10605;SDS011;5350;42.698;23.148;2023-05-16T11:30:47;12.88;;;6.85;;
10605;SDS011;5350;42.698;23.148;2023-05-16T11:33:15;11.68;;;7.38;;
10605;SDS011;5350;42.698;23.148;2023-05-16T11:35:44;8.98;;;6.93;;
10605;SDS011;5350;42.698;23.148;2023-05-16T11:38:25;10.73;;;7.00;;
10605;SDS011;5350;42.698;23.148;2023-05-16T11:41:00;13.30;;;6.95;;
10605;SDS011;5350;42.698;23.148;2023-05-16T11:43:27;9.35;;;7.05;;
10605;SDS011;5350;42.698;23.148;2023-05-16T11:45:54;14.15;;;7.70;;
10605;SDS011;5350;42.698;23.148;2023-05-16T11:48:22;14.25;;;7.07;;
10605;SDS011;5350;42.698;23.148;2023-05-16T11:50:50;13.43;;;6.85;;
10605;SDS011;5350;42.698;23.148;2023-05-16T11:53:19;9.57;;;6.75;;
10605;SDS011;5350;42.698;23.148;2023-05-16T11:55:47;9.55;;;6.53;;
10605;SDS011;5350;42.698;23.148;2023-05-16T11:58:16;9.10;;;7.07;;
10605;SDS011;5350;42.698;23.148;2023-05-16T12:00:46;9.88;;;7.65;;
10605;SDS011;5350;42.698;23.148;2023-05-16T12:03:13;10.02;;;7.70;;
10605;SDS011;5350;42.698;23.148;2023-05-16T12:05:48;11.00;;;7.18;;
10605;SDS011;5350;42.698;23.148;2023-05-16T12:08:18;12.45;;;8.23;;
10605;SDS011;5350;42.698;23.148;2023-05-16T12:10:47;11.60;;;7.90;;
10605;SDS011;5350;42.698;23.148;2023-05-16T12:13:14;9.85;;;7.20;;
10605;SDS011;5350;42.698;23.148;2023-05-16T12:15:41;11.98;;;7.85;;
10605;SDS011;5350;42.698;23.148;2023-05-16T12:18:08;11.50;;;8.07;;
10605;SDS011;5350;42.698;23.148;2023-05-16T12:20:35;15.57;;;8.27;;
10605;SDS011;5350;42.698;23.148;2023-05-16T12:23:02;11.70;;;8.30;;
10605;SDS011;5350;42.698;23.148;2023-05-16T12:25:31;13.52;;;7.90;;
10605;SDS011;5350;42.698;23.148;2023-05-16T12:28:00;10.75;;;7.60;;
10605;SDS011;5350;42.698;23.148;2023-05-16T12:30:29;13.02;;;7.88;;
10605;SDS011;5350;42.698;23.148;2023-05-16T12:32:56;12.45;;;8.00;;
10605;SDS011;5350;42.698;23.148;2023-05-16T12:35:23;15.40;;;8.23;;
10605;SDS011;5350;42.698;23.148;2023-05-16T12:37:51;12.57;;;8.00;;
10605;SDS011;5350;42.698;23.148;2023-05-16T12:40:18;17.63;;;7.93;;
10605;SDS011;5350;42.698;23.148;2023-05-16T12:42:46;10.88;;;7.90;;
10605;SDS011;5350;42.698;23.148;2023-05-16T12:45:15;13.57;;;8.05;;
10605;SDS011;5350;42.698;23.148;2023-05-16T12:47:43;14.95;;;8.80;;
10605;SDS011;5350;42.698;23.148;2023-05-16T12:50:10;15.38;;;8.52;;
10605;SDS011;5350;42.698;23.148;2023-05-16T12:52:45;11.35;;;8.00;;
10605;SDS011;5350;42.698;23.148;2023-05-16T12:55:13;13.68;;;7.45;;
10605;SDS011;5350;42.698;23.148;2023-05-16T12:57:41;14.18;;;8.00;;
10605;SDS011;5350;42.698;23.148;2023-05-16T13:00:11;12.38;;;8.15;;
10605;SDS011;5350;42.698;23.148;2023-05-16T13:02:38;17.15;;;8.40;;
10605;SDS011;5350;42.698;23.148;2023-05-16T13:05:05;13.32;;;8.27;;
10605;SDS011;5350;42.698;23.148;2023-05-16T13:07:32;14.95;;;8.68;;
10605;SDS011;5350;42.698;23.148;2023-05-16T13:09:59;12.55;;;8.35;;
10605;SDS011;5350;42.698;23.148;2023-05-16T13:12:26;12.82;;;8.45;;
10605;SDS011;5350;42.698;23.148;2023-05-16T13:14:53;14.68;;;8.77;;
10605;SDS011;5350;42.698;23.148;2023-05-16T13:17:21;15.45;;;8.50;;
10605;SDS011;5350;42.698;23.148;2023-05-16T13:19:48;13.45;;;8.65;;
10605;SDS011;5350;42.698;23.148;2023-05-16T13:22:15;12.77;;;8.00;;
10605;SDS011;5350;42.698;23.148;2023-05-16T13:24:42;11.88;;;8.35;;
10605;SDS011;5350;42.698;23.148;2023-05-16T13:27:08;13.85;;;7.95;;
10605;SDS011;5350;42.698;23.148;2023-05-16T13:29:35;12.10;;;8.05;;
10605;SDS011;5350;42.698;23.148;2023-05-16T13:32:02;13.10;;;8.40;;
10605;SDS011;5350;42.698;23.148;2023-05-16T13:34:30;14.23;;;9.00;;
10605;SDS011;5350;42.698;23.148;2023-05-16T13:36:57;13.73;;;8.70;;
10605;SDS011;5350;42.698;23.148;2023-05-16T13:39:24;15.73;;;8.82;;
10605;SDS011;5350;42.698;23.148;2023-05-16T13:41:51;11.75;;;8.32;;
10605;SDS011;5350;42.698;23.148;2023-05-16T13:44:18;11.85;;;8.60;;
10605;SDS011;5350;42.698;23.148;2023-05-16T13:46:46;14.00;;;9.40;;
10605;SDS011;5350;42.698;23.148;2023-05-16T13:49:13;11.88;;;9.73;;
10605;SDS011;5350;42.698;23.148;2023-05-16T13:51:41;15.32;;;10.82;;
10605;SDS011;5350;42.698;23.148;2023-05-16T13:54:08;13.77;;;9.80;;
10605;SDS011;5350;42.698;23.148;2023-05-16T13:56:34;16.65;;;11.05;;
10605;SDS011;5350;42.698;23.148;2023-05-16T13:59:01;14.25;;;10.55;;
10605;SDS011;5350;42.698;23.148;2023-05-16T14:01:28;13.52;;;9.90;;
10605;SDS011;5350;42.698;23.148;2023-05-16T14:03:55;16.00;;;11.23;;
10605;SDS011;5350;42.698;23.148;2023-05-16T14:06:22;15.13;;;12.02;;
10605;SDS011;5350;42.698;23.148;2023-05-16T14:08:50;17.85;;;11.90;;
10605;SDS011;5350;42.698;23.148;2023-05-16T14:11:17;19.80;;;10.82;;
10605;SDS011;5350;42.698;23.148;2023-05-16T14:13:47;17.10;;;11.48;;
10605;SDS011;5350;42.698;23.148;2023-05-16T14:16:14;18.45;;;15.15;;
10605;SDS011;5350;42.698;23.148;2023-05-16T14:18:40;18.90;;;14.82;;
10605;SDS011;5350;42.698;23.148;2023-05-16T14:21:07;18.00;;;13.02;;
10605;SDS011;5350;42.698;23.148;2023-05-16T14:23:34;15.38;;;9.57;;
10605;SDS011;5350;42.698;23.148;2023-05-16T14:26:02;18.25;;;9.50;;
10605;SDS011;5350;42.698;23.148;2023-05-16T14:28:29;18.70;;;9.80;;
10605;SDS011;5350;42.698;23.148;2023-05-16T14:30:56;14.68;;;8.93;;
10605;SDS011;5350;42.698;23.148;2023-05-16T14:33:23;14.60;;;9.60;;
10605;SDS011;5350;42.698;23.148;2023-05-16T14:35:50;11.15;;;7.13;;